sensor_id;sensor_type;location;lat;lon;timestamp;P1;durP1;ratioP1;P2;durP2;ratioP2
19798;SDS011;10059;59.850;10.454;2023-07-13T03:24:35;13.00;;;7.53;;
19798;SDS011;10059;59.850;10.454;2023-07-13T03:27:03;16.83;;;7.60;;
19798;SDS011;10059;59.850;10.454;2023-07-13T03:29:31;10.30;;;6.90;;
19798;SDS011;10059;59.850;10.454;2023-07-13T03:31:58;14.67;;;6.57;;
19798;SDS011;10059;59.850;10.454;2023-07-13T03:34:24;16.13;;;7.10;;
19798;SDS011;10059;59.850;10.454;2023-07-13T03:36:53;15.33;;;7.30;;
19798;SDS011;10059;59.850;10.454;2023-07-13T03:39:20;16.20;;;6.90;;
19798;SDS011;10059;59.850;10.454;2023-07-13T03:41:48;11.83;;;6.63;;
19798;SDS011;10059;59.850;10.454;2023-07-13T03:44:16;11.23;;;6.93;;
19798;SDS011;10059;59.850;10.454;2023-07-13T03:46:43;10.80;;;6.83;;
19798;SDS011;10059;59.850;10.454;2023-07-13T03:49:10;19.27;;;6.67;;
19798;SDS011;10059;59.850;10.454;2023-07-13T03:51:38;13.37;;;6.60;;
19798;SDS011;10059;59.850;10.454;2023-07-13T03:54:05;10.03;;;6.53;;
19798;SDS011;10059;59.850;10.454;2023-07-13T03:56:31;14.00;;;7.50;;
19798;SDS011;10059;59.850;10.454;2023-07-13T03:59:00;11.47;;;7.10;;
19798;SDS011;10059;59.850;10.454;2023-07-13T04:01:27;13.40;;;7.20;;
19798;SDS011;10059;59.850;10.454;2023-07-13T04:03:54;13.07;;;7.00;;
19798;SDS011;10059;59.850;10.454;2023-07-13T04:06:22;10.83;;;6.63;;
19798;SDS011;10059;59.850;10.454;2023-07-13T04:08:50;11.83;;;6.93;;
19798;SDS011;10059;59.850;10.454;2023-07-13T04:11:19;16.57;;;6.70;;
19798;SDS011;10059;59.850;10.454;2023-07-13T04:13:47;12.17;;;6.73;;
19798;SDS011;10059;59.850;10.454;2023-07-13T04:16:16;10.80;;;6.13;;
19798;SDS011;10059;59.850;10.454;2023-07-13T04:18:44;10.87;;;5.97;;
19798;SDS011;10059;59.850;10.454;2023-07-13T04:21:12;13.97;;;6.07;;
19798;SDS011;10059;59.850;10.454;2023-07-13T04:23:39;9.60;;;5.90;;
19798;SDS011;10059;59.850;10.454;2023-07-13T04:26:06;14.13;;;6.00;;
19798;SDS011;10059;59.850;10.454;2023-07-13T04:28:34;11.80;;;5.70;;
19798;SDS011;10059;59.850;10.454;2023-07-13T04:31:01;9.57;;;5.50;;
19798;SDS011;10059;59.850;10.454;2023-07-13T04:33:29;7.70;;;5.17;;
19798;SDS011;10059;59.850;10.454;2023-07-13T04:35:57;10.20;;;5.87;;
19798;SDS011;10059;59.850;10.454;2023-07-13T04:38:25;7.27;;;5.30;;
19798;SDS011;10059;59.850;10.454;2023-07-13T04:40:54;16.20;;;4.97;;
19798;SDS011;10059;59.850;10.454;2023-07-13T04:43:22;6.93;;;5.00;;
19798;SDS011;10059;59.850;10.454;2023-07-13T04:45:49;8.20;;;4.43;;
19798;SDS011;10059;59.850;10.454;2023-07-13T04:48:16;9.27;;;4.30;;
19798;SDS011;10059;59.850;10.454;2023-07-13T04:50:45;5.50;;;3.63;;
19798;SDS011;10059;59.850;10.454;2023-07-13T04:53:12;8.97;;;3.50;;
19798;SDS011;10059;59.850;10.454;2023-07-13T04:55:39;5.07;;;3.20;;
19798;SDS011;10059;59.850;10.454;2023-07-13T04:58:06;7.77;;;3.20;;
19798;SDS011;10059;59.850;10.454;2023-07-13T05:00:33;5.37;;;3.10;;
19798;SDS011;10059;59.850;10.454;2023-07-13T05:02:59;4.53;;;2.70;;
19798;SDS011;10059;59.850;10.454;2023-07-13T05:05:26;6.50;;;2.80;;
19798;SDS011;10059;59.850;10.454;2023-07-13T05:07:55;6.90;;;3.10;;
19798;SDS011;10059;59.850;10.454;2023-07-13T05:10:22;6.37;;;2.90;;
19798;SDS011;10059;59.850;10.454;2023-07-13T05:12:49;4.80;;;2.37;;
19798;SDS011;10059;59.850;10.454;2023-07-13T05:15:16;4.50;;;2.40;;
19798;SDS011;10059;59.850;10.454;2023-07-13T05:17:46;4.53;;;2.40;;
19798;SDS011;10059;59.850;10.454;2023-07-13T05:20:13;4.10;;;2.30;;
19798;SDS011;10059;59.850;10.454;2023-07-13T05:22:40;3.43;;;2.33;;
19798;SDS011;10059;59.850;10.454;2023-07-13T05:25:09;3.77;;;2.50;;
19798;SDS011;10059;59.850;10.454;2023-07-13T05:27:37;3.07;;;2.30;;
19798;SDS011;10059;59.850;10.454;2023-07-13T05:30:04;4.40;;;2.23;;
19798;SDS011;10059;59.850;10.454;2023-07-13T05:32:35;4.27;;;2.00;;
19798;SDS011;10059;59.850;10.454;2023-07-13T05:35:02;5.73;;;1.90;;
19798;SDS011;10059;59.850;10.454;2023-07-13T05:37:30;4.37;;;2.30;;
19798;SDS011;10059;59.850;10.454;2023-07-13T05:39:56;2.50;;;2.00;;
19798;SDS011;10059;59.850;10.454;2023-07-13T05:42:25;2.97;;;2.00;;
19798;SDS011;10059;59.850;10.454;2023-07-13T05:44:52;3.00;;;1.83;;
19798;SDS011;10059;59.850;10.454;2023-07-13T05:47:19;4.40;;;2.40;;
19798;SDS011;10059;59.850;10.454;2023-07-13T05:49:46;5.57;;;1.97;;
19798;SDS011;10059;59.850;10.454;2023-07-13T05:52:12;4.80;;;2.00;;
19798;SDS011;10059;59.850;10.454;2023-07-13T05:54:39;2.83;;;1.80;;
19798;SDS011;10059;59.850;10.454;2023-07-13T05:57:06;2.30;;;1.43;;
19798;SDS011;10059;59.850;10.454;2023-07-13T05:59:35;3.23;;;1.70;;
19798;SDS011;10059;59.850;10.454;2023-07-13T06:02:02;2.63;;;1.70;;
19798;SDS011;10059;59.850;10.454;2023-07-13T06:04:29;3.20;;;1.50;;
19798;SDS011;10059;59.850;10.454;2023-07-13T06:06:55;3.77;;;1.53;;
19798;SDS011;10059;59.850;10.454;2023-07-13T06:09:22;2.70;;;1.40;;
19798;SDS011;10059;59.850;10.454;2023-07-13T06:11:49;3.03;;;1.60;;
19798;SDS011;10059;59.850;10.454;2023-07-13T06:14:16;3.83;;;1.50;;
19798;SDS011;10059;59.850;10.454;2023-07-13T06:16:44;4.40;;;1.97;;
19798;SDS011;10059;59.850;10.454;2023-07-13T06:19:11;1.57;;;1.43;;
19798;SDS011;10059;59.850;10.454;2023-07-13T06:21:38;4.33;;;1.70;;
19798;SDS011;10059;59.850;10.454;2023-07-13T06:24:04;4.27;;;1.50;;
19798;SDS011;10059;59.850;10.454;2023-07-13T06:26:31;1.77;;;1.30;;
19798;SDS011;10059;59.850;10.454;2023-07-13T06:28:58;3.07;;;1.47;;
19798;SDS011;10059;59.850;10.454;2023-07-13T06:31:25;2.83;;;1.60;;
19798;SDS011;10059;59.850;10.454;2023-07-13T06:33:53;1.77;;;1.30;;
19798;SDS011;10059;59.850;10.454;2023-07-13T06:36:20;2.33;;;1.50;;
19798;SDS011;10059;59.850;10.454;2023-07-13T06:38:47;3.87;;;1.60;;
19798;SDS011;10059;59.850;10.454;2023-07-13T06:41:14;5.40;;;1.70;;
19798;SDS011;10059;59.850;10.454;2023-07-13T06:43:40;4.00;;;1.60;;
19798;SDS011;10059;59.850;10.454;2023-07-13T06:46:07;2.63;;;1.60;;
19798;SDS011;10059;59.850;10.454;2023-07-13T06:48:34;3.30;;;1.47;;
19798;SDS011;10059;59.850;10.454;2023-07-13T06:51:02;1.77;;;1.40;;
19798;SDS011;10059;59.850;10.454;2023-07-13T06:53:29;4.33;;;1.10;;
19798;SDS011;10059;59.850;10.454;2023-07-13T06:55:56;4.47;;;1.40;;
19798;SDS011;10059;59.850;10.454;2023-07-13T06:58:23;4.23;;;1.20;;
19798;SDS011;10059;59.850;10.454;2023-07-13T07:00:50;2.63;;;1.10;;
19798;SDS011;10059;59.850;10.454;2023-07-13T07:03:17;2.43;;;1.07;;
19798;SDS011;10059;59.850;10.454;2023-07-13T07:05:44;1.80;;;1.03;;
19798;SDS011;10059;59.850;10.454;2023-07-13T07:08:12;2.10;;;0.93;;
19798;SDS011;10059;59.850;10.454;2023-07-13T07:10:40;2.37;;;0.90;;
19798;SDS011;10059;59.850;10.454;2023-07-13T07:13:07;1.43;;;1.00;;
19798;SDS011;10059;59.850;10.454;2023-07-13T07:15:34;1.50;;;1.07;;
19798;SDS011;10059;59.850;10.454;2023-07-13T07:18:02;4.63;;;1.00;;
19798;SDS011;10059;59.850;10.454;2023-07-13T07:20:29;3.87;;;0.93;;
19798;SDS011;10059;59.850;10.454;2023-07-13T07:22:57;3.70;;;0.77;;
19798;SDS011;10059;59.850;10.454;2023-07-13T07:25:25;4.17;;;1.00;;
19798;SDS011;10059;59.850;10.454;2023-07-13T07:27:56;3.73;;;0.90;;
19798;SDS011;10059;59.850;10.454;2023-07-13T07:30:23;1.17;;;0.80;;
19798;SDS011;10059;59.850;10.454;2023-07-13T07:32:50;2.67;;;0.70;;
19798;SDS011;10059;59.850;10.454;2023-07-13T07:35:17;1.67;;;1.07;;
19798;SDS011;10059;59.850;10.454;2023-07-13T07:37:44;1.50;;;0.90;;
19798;SDS011;10059;59.850;10.454;2023-07-13T07:40:10;1.80;;;1.00;;
19798;SDS011;10059;59.850;10.454;2023-07-13T07:42:39;1.40;;;1.00;;
19798;SDS011;10059;59.850;10.454;2023-07-13T07:45:06;1.50;;;0.97;;
19798;SDS011;10059;59.850;10.454;2023-07-13T07:47:33;2.53;;;1.00;;
19798;SDS011;10059;59.850;10.454;2023-07-13T07:50:00;1.20;;;0.83;;
19798;SDS011;10059;59.850;10.454;2023-07-13T07:52:26;1.77;;;1.00;;
19798;SDS011;10059;59.850;10.454;2023-07-13T07:54:53;1.30;;;1.00;;
19798;SDS011;10059;59.850;10.454;2023-07-13T07:57:20;3.90;;;1.10;;
19798;SDS011;10059;59.850;10.454;2023-07-13T07:59:49;1.93;;;1.03;;
19798;SDS011;10059;59.850;10.454;2023-07-13T08:02:15;3.63;;;1.03;;
19798;SDS011;10059;59.850;10.454;2023-07-13T08:04:42;2.40;;;1.20;;
19798;SDS011;10059;59.850;10.454;2023-07-13T08:07:09;2.97;;;1.00;;
19798;SDS011;10059;59.850;10.454;2023-07-13T08:09:36;2.57;;;1.10;;
19798;SDS011;10059;59.850;10.454;2023-07-13T08:12:03;3.00;;;1.10;;
19798;SDS011;10059;59.850;10.454;2023-07-13T08:14:32;2.03;;;1.10;;
19798;SDS011;10059;59.850;10.454;2023-07-13T08:17:00;2.37;;;1.20;;
19798;SDS011;10059;59.850;10.454;2023-07-13T08:19:27;3.90;;;1.20;;
19798;SDS011;10059;59.850;10.454;2023-07-13T08:21:54;2.77;;;1.40;;
19798;SDS011;10059;59.850;10.454;2023-07-13T08:24:21;3.03;;;1.20;;
19798;SDS011;10059;59.850;10.454;2023-07-13T08:26:50;3.20;;;1.30;;
19798;SDS011;10059;59.850;10.454;2023-07-13T08:29:17;2.57;;;1.40;;
19798;SDS011;10059;59.850;10.454;2023-07-13T08:31:44;3.97;;;1.30;;
19798;SDS011;10059;59.850;10.454;2023-07-13T08:34:12;2.37;;;1.20;;
19798;SDS011;10059;59.850;10.454;2023-07-13T08:36:39;2.17;;;1.30;;
19798;SDS011;10059;59.850;10.454;2023-07-13T08:39:06;3.60;;;1.00;;
19798;SDS011;10059;59.850;10.454;2023-07-13T08:41:33;3.47;;;1.07;;
19798;SDS011;10059;59.850;10.454;2023-07-13T08:44:01;2.67;;;1.20;;
19798;SDS011;10059;59.850;10.454;2023-07-13T08:46:35;2.63;;;1.13;;
19798;SDS011;10059;59.850;10.454;2023-07-13T08:49:06;2.60;;;0.90;;
19798;SDS011;10059;59.850;10.454;2023-07-13T08:51:40;2.47;;;0.80;;
19798;SDS011;10059;59.850;10.454;2023-07-13T08:54:17;2.00;;;1.00;;
19798;SDS011;10059;59.850;10.454;2023-07-13T08:56:48;2.57;;;0.90;;
19798;SDS011;10059;59.850;10.454;2023-07-13T08:59:18;2.67;;;1.10;;
19798;SDS011;10059;59.850;10.454;2023-07-13T09:01:53;2.13;;;0.80;;
19798;SDS011;10059;59.850;10.454;2023-07-13T09:04:32;1.00;;;0.80;;
19798;SDS011;10059;59.850;10.454;2023-07-13T09:07:05;3.13;;;0.87;;
19798;SDS011;10059;59.850;10.454;2023-07-13T09:09:42;2.20;;;0.93;;
19798;SDS011;10059;59.850;10.454;2023-07-13T09:12:17;4.07;;;0.80;;
19798;SDS011;10059;59.850;10.454;2023-07-13T09:14:50;2.43;;;0.93;;
19798;SDS011;10059;59.850;10.454;2023-07-13T09:17:20;3.27;;;1.00;;
19798;SDS011;10059;59.850;10.454;2023-07-13T09:19:53;1.90;;;0.90;;
19798;SDS011;10059;59.850;10.454;2023-07-13T09:22:26;1.83;;;0.90;;
19798;SDS011;10059;59.850;10.454;2023-07-13T09:24:55;2.40;;;0.80;;
19798;SDS011;10059;59.850;10.454;2023-07-13T09:27:29;2.10;;;0.77;;
19798;SDS011;10059;59.850;10.454;2023-07-13T09:30:10;4.50;;;0.80;;
19798;SDS011;10059;59.850;10.454;2023-07-13T09:32:51;3.00;;;1.00;;
19798;SDS011;10059;59.850;10.454;2023-07-13T09:35:20;5.27;;;0.80;;
19798;SDS011;10059;59.850;10.454;2023-07-13T09:37:56;2.10;;;0.90;;
19798;SDS011;10059;59.850;10.454;2023-07-13T09:40:28;1.83;;;0.93;;
19798;SDS011;10059;59.850;10.454;2023-07-13T09:43:02;4.47;;;0.90;;
19798;SDS011;10059;59.850;10.454;2023-07-13T09:45:32;1.77;;;0.77;;
19798;SDS011;10059;59.850;10.454;2023-07-13T09:48:03;3.37;;;1.10;;
19798;SDS011;10059;59.850;10.454;2023-07-13T09:50:31;3.93;;;1.00;;
19798;SDS011;10059;59.850;10.454;2023-07-13T09:53:00;2.47;;;0.87;;
19798;SDS011;10059;59.850;10.454;2023-07-13T09:55:29;3.93;;;1.13;;
19798;SDS011;10059;59.850;10.454;2023-07-13T09:58:02;1.50;;;0.90;;
19798;SDS011;10059;59.850;10.454;2023-07-13T10:00:31;1.87;;;0.87;;
19798;SDS011;10059;59.850;10.454;2023-07-13T10:02:59;2.03;;;0.80;;
19798;SDS011;10059;59.850;10.454;2023-07-13T10:05:31;2.80;;;1.00;;
19798;SDS011;10059;59.850;10.454;2023-07-13T10:08:05;1.70;;;0.90;;
19798;SDS011;10059;59.850;10.454;2023-07-13T10:10:40;5.27;;;1.13;;
19798;SDS011;10059;59.850;10.454;2023-07-13T10:13:12;4.33;;;1.10;;
19798;SDS011;10059;59.850;10.454;2023-07-13T10:15:53;3.83;;;0.93;;
19798;SDS011;10059;59.850;10.454;2023-07-13T10:18:21;2.57;;;0.90;;
19798;SDS011;10059;59.850;10.454;2023-07-13T10:20:50;2.33;;;0.90;;
19798;SDS011;10059;59.850;10.454;2023-07-13T10:23:27;1.77;;;0.80;;
19798;SDS011;10059;59.850;10.454;2023-07-13T10:25:58;1.90;;;0.90;;
19798;SDS011;10059;59.850;10.454;2023-07-13T10:28:27;2.70;;;0.83;;
19798;SDS011;10059;59.850;10.454;2023-07-13T10:30:58;3.57;;;0.80;;
19798;SDS011;10059;59.850;10.454;2023-07-13T10:33:27;0.70;;;0.60;;
19798;SDS011;10059;59.850;10.454;2023-07-13T10:35:54;4.40;;;0.80;;
19798;SDS011;10059;59.850;10.454;2023-07-13T10:38:29;4.77;;;0.80;;
19798;SDS011;10059;59.850;10.454;2023-07-13T10:40:59;2.17;;;0.80;;
19798;SDS011;10059;59.850;10.454;2023-07-13T10:43:31;2.50;;;0.57;;
19798;SDS011;10059;59.850;10.454;2023-07-13T10:46:03;2.47;;;0.80;;
19798;SDS011;10059;59.850;10.454;2023-07-13T10:48:32;2.20;;;0.70;;
19798;SDS011;10059;59.850;10.454;2023-07-13T10:51:02;1.50;;;0.90;;
19798;SDS011;10059;59.850;10.454;2023-07-13T10:53:34;1.23;;;0.70;;
19798;SDS011;10059;59.850;10.454;2023-07-13T10:56:02;1.43;;;0.70;;
19798;SDS011;10059;59.850;10.454;2023-07-13T10:58:34;4.27;;;1.00;;
19798;SDS011;10059;59.850;10.454;2023-07-13T11:01:03;1.90;;;0.70;;
19798;SDS011;10059;59.850;10.454;2023-07-13T11:03:34;0.70;;;0.53;;
19798;SDS011;10059;59.850;10.454;2023-07-13T11:06:07;5.40;;;0.80;;
19798;SDS011;10059;59.850;10.454;2023-07-13T11:08:38;2.97;;;0.67;;
19798;SDS011;10059;59.850;10.454;2023-07-13T11:11:32;2.07;;;0.70;;
19798;SDS011;10059;59.850;10.454;2023-07-13T11:14:02;1.83;;;0.70;;
19798;SDS011;10059;59.850;10.454;2023-07-13T11:16:34;2.00;;;0.90;;
19798;SDS011;10059;59.850;10.454;2023-07-13T11:19:23;1.10;;;0.70;;
19798;SDS011;10059;59.850;10.454;2023-07-13T11:22:09;1.97;;;0.67;;
19798;SDS011;10059;59.850;10.454;2023-07-13T11:24:50;1.27;;;0.60;;
19798;SDS011;10059;59.850;10.454;2023-07-13T11:27:33;3.60;;;0.90;;
19798;SDS011;10059;59.850;10.454;2023-07-13T11:32:52;3.07;;;0.70;;
19798;SDS011;10059;59.850;10.454;2023-07-13T11:35:32;5.27;;;0.70;;
19798;SDS011;10059;59.850;10.454;2023-07-13T11:38:01;2.97;;;0.70;;
19798;SDS011;10059;59.850;10.454;2023-07-13T11:40:35;4.03;;;0.70;;
19798;SDS011;10059;59.850;10.454;2023-07-13T11:43:02;2.43;;;0.60;;
19798;SDS011;10059;59.850;10.454;2023-07-13T11:45:33;2.80;;;0.50;;
19798;SDS011;10059;59.850;10.454;2023-07-13T11:47:59;3.50;;;0.70;;
19798;SDS011;10059;59.850;10.454;2023-07-13T11:50:26;4.23;;;0.70;;
19798;SDS011;10059;59.850;10.454;2023-07-13T11:52:53;3.40;;;0.80;;
19798;SDS011;10059;59.850;10.454;2023-07-13T11:55:22;2.83;;;0.60;;
19798;SDS011;10059;59.850;10.454;2023-07-13T11:57:54;1.70;;;0.50;;
19798;SDS011;10059;59.850;10.454;2023-07-13T12:00:25;1.20;;;0.70;;
19798;SDS011;10059;59.850;10.454;2023-07-13T12:02:55;1.13;;;0.53;;
19798;SDS011;10059;59.850;10.454;2023-07-13T12:05:25;1.87;;;0.70;;
19798;SDS011;10059;59.850;10.454;2023-07-13T12:07:52;3.17;;;0.60;;
19798;SDS011;10059;59.850;10.454;2023-07-13T12:10:21;2.27;;;0.50;;
19798;SDS011;10059;59.850;10.454;2023-07-13T12:12:53;1.50;;;0.60;;
19798;SDS011;10059;59.850;10.454;2023-07-13T12:15:22;0.60;;;0.40;;
19798;SDS011;10059;59.850;10.454;2023-07-13T12:17:49;2.00;;;0.40;;
19798;SDS011;10059;59.850;10.454;2023-07-13T12:20:19;1.23;;;0.60;;
19798;SDS011;10059;59.850;10.454;2023-07-13T12:22:49;1.63;;;0.50;;
19798;SDS011;10059;59.850;10.454;2023-07-13T12:25:16;1.53;;;0.57;;
19798;SDS011;10059;59.850;10.454;2023-07-13T12:27:46;1.93;;;0.60;;
19798;SDS011;10059;59.850;10.454;2023-07-13T12:30:26;1.30;;;0.50;;
19798;SDS011;10059;59.850;10.454;2023-07-13T12:32:56;0.70;;;0.53;;
19798;SDS011;10059;59.850;10.454;2023-07-13T12:35:24;1.43;;;0.60;;
19798;SDS011;10059;59.850;10.454;2023-07-13T12:37:54;0.70;;;0.53;;
19798;SDS011;10059;59.850;10.454;2023-07-13T12:40:27;1.50;;;0.70;;
19798;SDS011;10059;59.850;10.454;2023-07-13T12:42:58;1.03;;;0.60;;
19798;SDS011;10059;59.850;10.454;2023-07-13T12:45:27;1.30;;;0.50;;
19798;SDS011;10059;59.850;10.454;2023-07-13T12:47:55;1.50;;;0.50;;
19798;SDS011;10059;59.850;10.454;2023-07-13T12:50:27;2.83;;;0.60;;
19798;SDS011;10059;59.850;10.454;2023-07-13T12:52:56;0.93;;;0.50;;
19798;SDS011;10059;59.850;10.454;2023-07-13T12:55:28;0.40;;;0.40;;
19798;SDS011;10059;59.850;10.454;2023-07-13T12:57:58;2.43;;;0.80;;
19798;SDS011;10059;59.850;10.454;2023-07-13T13:00:27;1.07;;;0.77;;
19798;SDS011;10059;59.850;10.454;2023-07-13T13:03:00;3.77;;;0.70;;
19798;SDS011;10059;59.850;10.454;2023-07-13T13:05:29;2.70;;;0.97;;
19798;SDS011;10059;59.850;10.454;2023-07-13T13:07:57;5.00;;;0.80;;
19798;SDS011;10059;59.850;10.454;2023-07-13T13:10:23;4.00;;;1.00;;
19798;SDS011;10059;59.850;10.454;2023-07-13T13:12:51;3.00;;;1.00;;
19798;SDS011;10059;59.850;10.454;2023-07-13T13:15:18;2.73;;;0.90;;
19798;SDS011;10059;59.850;10.454;2023-07-13T13:17:48;5.43;;;1.13;;
19798;SDS011;10059;59.850;10.454;2023-07-13T13:20:16;7.47;;;1.53;;
19798;SDS011;10059;59.850;10.454;2023-07-13T13:22:44;8.90;;;1.60;;
19798;SDS011;10059;59.850;10.454;2023-07-13T13:25:11;6.60;;;1.40;;
19798;SDS011;10059;59.850;10.454;2023-07-13T13:27:39;7.30;;;1.70;;
19798;SDS011;10059;59.850;10.454;2023-07-13T13:30:10;4.80;;;1.57;;
19798;SDS011;10059;59.850;10.454;2023-07-13T13:32:38;5.73;;;1.17;;
19798;SDS011;10059;59.850;10.454;2023-07-13T13:35:07;5.83;;;1.13;;
19798;SDS011;10059;59.850;10.454;2023-07-13T13:37:39;6.10;;;1.50;;
19798;SDS011;10059;59.850;10.454;2023-07-13T13:40:13;7.50;;;1.40;;
19798;SDS011;10059;59.850;10.454;2023-07-13T13:42:41;4.70;;;1.53;;
19798;SDS011;10059;59.850;10.454;2023-07-13T13:45:08;6.70;;;1.40;;
19798;SDS011;10059;59.850;10.454;2023-07-13T13:47:37;4.80;;;1.50;;
19798;SDS011;10059;59.850;10.454;2023-07-13T13:50:12;5.90;;;1.80;;
19798;SDS011;10059;59.850;10.454;2023-07-13T13:52:40;5.47;;;1.80;;
19798;SDS011;10059;59.850;10.454;2023-07-13T13:55:11;8.63;;;1.87;;
19798;SDS011;10059;59.850;10.454;2023-07-13T13:57:38;7.47;;;1.70;;
19798;SDS011;10059;59.850;10.454;2023-07-13T14:00:05;7.00;;;1.60;;
19798;SDS011;10059;59.850;10.454;2023-07-13T14:02:34;11.30;;;2.20;;
19798;SDS011;10059;59.850;10.454;2023-07-13T14:05:01;8.43;;;2.33;;
19798;SDS011;10059;59.850;10.454;2023-07-13T14:07:31;10.70;;;2.43;;
19798;SDS011;10059;59.850;10.454;2023-07-13T14:09:58;7.37;;;2.07;;
19798;SDS011;10059;59.850;10.454;2023-07-13T14:12:26;8.67;;;1.90;;
19798;SDS011;10059;59.850;10.454;2023-07-13T14:14:55;12.27;;;2.47;;
19798;SDS011;10059;59.850;10.454;2023-07-13T14:17:24;13.53;;;2.43;;
19798;SDS011;10059;59.850;10.454;2023-07-13T14:19:53;13.63;;;2.20;;
19798;SDS011;10059;59.850;10.454;2023-07-13T14:22:22;12.73;;;2.40;;
19798;SDS011;10059;59.850;10.454;2023-07-13T14:24:52;9.07;;;2.10;;
19798;SDS011;10059;59.850;10.454;2023-07-13T14:27:19;7.97;;;2.03;;
19798;SDS011;10059;59.850;10.454;2023-07-13T14:29:46;9.43;;;2.03;;
19798;SDS011;10059;59.850;10.454;2023-07-13T14:32:13;7.63;;;2.10;;
19798;SDS011;10059;59.850;10.454;2023-07-13T14:34:40;6.47;;;1.70;;
19798;SDS011;10059;59.850;10.454;2023-07-13T14:37:10;13.53;;;2.60;;
19798;SDS011;10059;59.850;10.454;2023-07-13T14:39:39;11.90;;;2.47;;
19798;SDS011;10059;59.850;10.454;2023-07-13T14:42:10;12.63;;;2.57;;
19798;SDS011;10059;59.850;10.454;2023-07-13T14:44:37;8.30;;;2.50;;
19798;SDS011;10059;59.850;10.454;2023-07-13T14:47:05;8.30;;;2.33;;
19798;SDS011;10059;59.850;10.454;2023-07-13T14:49:34;8.40;;;2.53;;
19798;SDS011;10059;59.850;10.454;2023-07-13T14:52:05;7.97;;;2.27;;
19798;SDS011;10059;59.850;10.454;2023-07-13T14:54:37;6.20;;;2.20;;
19798;SDS011;10059;59.850;10.454;2023-07-13T14:57:08;6.47;;;2.53;;
19798;SDS011;10059;59.850;10.454;2023-07-13T14:59:39;6.60;;;2.03;;
19798;SDS011;10059;59.850;10.454;2023-07-13T15:02:15;5.33;;;1.73;;
19798;SDS011;10059;59.850;10.454;2023-07-13T15:04:44;4.27;;;1.47;;
19798;SDS011;10059;59.850;10.454;2023-07-13T15:07:11;7.10;;;1.80;;
19798;SDS011;10059;59.850;10.454;2023-07-13T15:09:40;2.93;;;1.20;;
19798;SDS011;10059;59.850;10.454;2023-07-13T15:12:08;3.67;;;1.10;;
19798;SDS011;10059;59.850;10.454;2023-07-13T15:14:36;4.87;;;0.97;;
19798;SDS011;10059;59.850;10.454;2023-07-13T15:17:03;3.37;;;0.80;;
19798;SDS011;10059;59.850;10.454;2023-07-13T15:19:31;3.23;;;0.90;;
19798;SDS011;10059;59.850;10.454;2023-07-13T15:21:58;1.80;;;1.00;;
19798;SDS011;10059;59.850;10.454;2023-07-13T15:24:25;3.37;;;0.67;;
19798;SDS011;10059;59.850;10.454;2023-07-13T15:26:52;2.47;;;0.70;;
19798;SDS011;10059;59.850;10.454;2023-07-13T15:29:19;1.27;;;0.53;;
19798;SDS011;10059;59.850;10.454;2023-07-13T15:31:47;2.87;;;0.70;;
19798;SDS011;10059;59.850;10.454;2023-07-13T15:34:18;0.70;;;0.50;;
19798;SDS011;10059;59.850;10.454;2023-07-13T15:36:49;1.20;;;0.50;;
19798;SDS011;10059;59.850;10.454;2023-07-13T15:39:16;0.73;;;0.40;;
19798;SDS011;10059;59.850;10.454;2023-07-13T15:41:43;2.57;;;0.40;;
19798;SDS011;10059;59.850;10.454;2023-07-13T15:44:20;2.40;;;0.30;;
19798;SDS011;10059;59.850;10.454;2023-07-13T15:46:54;0.20;;;0.20;;
19798;SDS011;10059;59.850;10.454;2023-07-13T15:49:21;0.20;;;0.20;;
19798;SDS011;10059;59.850;10.454;2023-07-13T15:51:47;0.40;;;0.20;;
19798;SDS011;10059;59.850;10.454;2023-07-13T15:54:16;1.63;;;0.40;;
19798;SDS011;10059;59.850;10.454;2023-07-13T15:56:45;0.50;;;0.40;;
19798;SDS011;10059;59.850;10.454;2023-07-13T15:59:17;5.03;;;0.50;;
19798;SDS011;10059;59.850;10.454;2023-07-13T16:01:44;1.23;;;0.30;;
19798;SDS011;10059;59.850;10.454;2023-07-13T16:04:13;0.63;;;0.40;;
19798;SDS011;10059;59.850;10.454;2023-07-13T16:06:40;0.40;;;0.30;;
19798;SDS011;10059;59.850;10.454;2023-07-13T16:09:09;0.40;;;0.40;;
19798;SDS011;10059;59.850;10.454;2023-07-13T16:11:42;0.80;;;0.30;;
19798;SDS011;10059;59.850;10.454;2023-07-13T16:14:08;0.73;;;0.23;;
19798;SDS011;10059;59.850;10.454;2023-07-13T16:16:40;0.67;;;0.30;;
19798;SDS011;10059;59.850;10.454;2023-07-13T16:19:08;0.50;;;0.30;;
19798;SDS011;10059;59.850;10.454;2023-07-13T16:21:38;2.27;;;0.50;;
19798;SDS011;10059;59.850;10.454;2023-07-13T16:24:12;2.07;;;0.47;;
19798;SDS011;10059;59.850;10.454;2023-07-13T16:26:42;0.50;;;0.30;;
19798;SDS011;10059;59.850;10.454;2023-07-13T16:29:13;1.70;;;0.50;;
19798;SDS011;10059;59.850;10.454;2023-07-13T16:31:41;1.13;;;0.33;;
19798;SDS011;10059;59.850;10.454;2023-07-13T16:34:08;2.57;;;0.60;;
19798;SDS011;10059;59.850;10.454;2023-07-13T16:36:36;1.53;;;0.60;;
19798;SDS011;10059;59.850;10.454;2023-07-13T16:39:10;1.27;;;0.53;;
19798;SDS011;10059;59.850;10.454;2023-07-13T16:41:38;1.53;;;0.67;;
19798;SDS011;10059;59.850;10.454;2023-07-13T16:44:09;1.87;;;0.70;;
19798;SDS011;10059;59.850;10.454;2023-07-13T16:46:37;3.13;;;0.60;;
19798;SDS011;10059;59.850;10.454;2023-07-13T16:49:07;3.17;;;0.70;;
19798;SDS011;10059;59.850;10.454;2023-07-13T16:51:47;2.63;;;0.70;;
19798;SDS011;10059;59.850;10.454;2023-07-13T16:54:14;1.90;;;0.73;;
19798;SDS011;10059;59.850;10.454;2023-07-13T16:56:43;2.97;;;0.70;;
19798;SDS011;10059;59.850;10.454;2023-07-13T16:59:12;2.87;;;0.80;;
19798;SDS011;10059;59.850;10.454;2023-07-13T17:01:41;3.40;;;0.60;;
19798;SDS011;10059;59.850;10.454;2023-07-13T17:04:08;0.50;;;0.37;;
19798;SDS011;10059;59.850;10.454;2023-07-13T17:06:36;1.20;;;0.40;;
19798;SDS011;10059;59.850;10.454;2023-07-13T17:09:07;0.60;;;0.30;;
19798;SDS011;10059;59.850;10.454;2023-07-13T17:11:38;1.03;;;0.40;;
19798;SDS011;10059;59.850;10.454;2023-07-13T17:14:08;2.30;;;0.50;;
19798;SDS011;10059;59.850;10.454;2023-07-13T17:16:43;0.50;;;0.40;;
19798;SDS011;10059;59.850;10.454;2023-07-13T17:19:11;1.73;;;0.40;;
19798;SDS011;10059;59.850;10.454;2023-07-13T17:21:39;2.73;;;0.57;;
19798;SDS011;10059;59.850;10.454;2023-07-13T17:24:10;2.80;;;0.50;;
19798;SDS011;10059;59.850;10.454;2023-07-13T17:26:43;5.10;;;0.70;;
19798;SDS011;10059;59.850;10.454;2023-07-13T17:29:11;0.93;;;0.30;;
19798;SDS011;10059;59.850;10.454;2023-07-13T17:31:38;2.73;;;0.50;;
19798;SDS011;10059;59.850;10.454;2023-07-13T17:34:08;1.87;;;0.50;;
19798;SDS011;10059;59.850;10.454;2023-07-13T17:36:37;1.47;;;0.40;;
19798;SDS011;10059;59.850;10.454;2023-07-13T17:39:05;1.33;;;0.50;;
19798;SDS011;10059;59.850;10.454;2023-07-13T17:41:41;1.33;;;0.40;;
19798;SDS011;10059;59.850;10.454;2023-07-13T17:44:08;2.80;;;0.40;;
19798;SDS011;10059;59.850;10.454;2023-07-13T17:46:36;4.47;;;0.50;;
19798;SDS011;10059;59.850;10.454;2023-07-13T17:49:03;1.13;;;0.40;;
19798;SDS011;10059;59.850;10.454;2023-07-13T17:51:32;2.30;;;0.33;;
19798;SDS011;10059;59.850;10.454;2023-07-13T17:54:01;0.60;;;0.47;;
19798;SDS011;10059;59.850;10.454;2023-07-13T17:56:29;5.80;;;0.50;;
19798;SDS011;10059;59.850;10.454;2023-07-13T17:58:57;1.33;;;0.50;;
19798;SDS011;10059;59.850;10.454;2023-07-13T18:01:24;0.60;;;0.50;;
19798;SDS011;10059;59.850;10.454;2023-07-13T18:03:51;1.57;;;0.43;;
19798;SDS011;10059;59.850;10.454;2023-07-13T18:06:23;1.57;;;0.47;;
19798;SDS011;10059;59.850;10.454;2023-07-13T18:08:55;1.50;;;0.50;;
19798;SDS011;10059;59.850;10.454;2023-07-13T18:11:23;1.43;;;0.57;;